Photometre #644[NE_1.6] AgiaMarina_Xyliatou AOT

File : 20220927_644.hum

27/09/2022,04:23:15,TEMP=20.6,BA=5.52,STAT.A=13.0,ExtBa=13.05
27/09/2022,04:26:23,TEMP=21.0,BA=5.52,STAT.A=13.0,ExtBa=12.92
27/09/2022,04:30:03,TEMP=21.3,BA=5.52,STAT.A=13.0,ExtBa=12.89
27/09/2022,04:34:25,TEMP=21.6,BA=5.40,STAT.A=13.0,ExtBa=12.92
27/09/2022,04:39:40,TEMP=21.9,BA=5.40,STAT.A=13.0,ExtBa=12.96
27/09/2022,04:46:08,TEMP=22.2,BA=5.48,STAT.A=13.0,ExtBa=13.03
27/09/2022,04:54:18,TEMP=22.7,BA=5.64,STAT.B=13.0,ExtBa=13.15
27/09/2022,05:03:02,TEMP=23.6,BA=5.48,STAT.A=13.0,ExtBa=12.86
27/09/2022,05:04:53,TEMP=23.9,BA=5.48,STAT.A=13.0,ExtBa=12.93
27/09/2022,05:07:29,TEMP=24.0,BA=5.48,STAT.A=13.0,ExtBa=13.01
27/09/2022,05:13:04,TEMP=23.9,BA=5.64,STAT.A=13.0,ExtBa=13.23
27/09/2022,05:19:27,TEMP=24.2,BA=5.64,STAT.C=13.0,ExtBa=13.40
27/09/2022,05:33:10,TEMP=25.3,BA=5.48,STAT.A=13.0,ExtBa=12.90
27/09/2022,05:35:38,TEMP=25.4,BA=5.48,STAT.A=13.0,ExtBa=13.06
27/09/2022,05:45:58,TEMP=25.6,BA=5.64,STAT.A=13.5,ExtBa=13.66
27/09/2022,05:58:41,TEMP=26.4,BA=5.64,STAT.A=13.5,ExtBa=13.75
27/09/2022,06:14:35,TEMP=27.3,BA=5.64,STAT.B=13.5,ExtBa=13.83
27/09/2022,06:24:25,TEMP=27.9,BA=5.52,STAT.D=13.5,ExtBa=13.59
27/09/2022,06:39:27,TEMP=27.7,BA=5.64,STAT.F,ExtBa=13.92
27/09/2022,06:54:25,TEMP=28.4,BA=5.52,STAT.D=13.5,ExtBa=13.72
27/09/2022,07:09:26,TEMP=28.9,BA=5.64,STAT.D=13.5,ExtBa=14.10
27/09/2022,07:24:26,TEMP=28.8,BA=5.64,STAT.D=13.5,ExtBa=14.41
27/09/2022,07:39:27,TEMP=29.4,BA=5.64,STAT.F,ExtBa=14.58
27/09/2022,07:56:56,TEMP=29.8,BA=5.52,STAT.D=13.5,ExtBa=14.58
27/09/2022,08:09:26,TEMP=29.5,BA=5.64,STAT.D=14.0,ExtBa=14.63
27/09/2022,08:24:25,TEMP=29.2,BA=5.64,STAT.D=14.0,ExtBa=14.65
27/09/2022,08:39:28,TEMP=29.7,BA=5.64,STAT.F,ExtBa=14.63
27/09/2022,08:54:26,TEMP=29.5,BA=5.64,STAT.D=14.0,ExtBa=14.62
27/09/2022,09:09:26,TEMP=29.7,BA=5.64,STAT.D=14.0,ExtBa=14.61
27/09/2022,09:24:26,TEMP=29.4,BA=5.64,STAT.D=14.0,ExtBa=14.60
27/09/2022,09:39:28,TEMP=29.6,BA=5.60,STAT.F,ExtBa=14.59
27/09/2022,09:54:26,TEMP=30.2,BA=5.60,STAT.D=13.5,ExtBa=14.57
27/09/2022,10:09:26,TEMP=30.5,BA=5.60,STAT.D=13.5,ExtBa=14.55
27/09/2022,10:24:26,TEMP=30.7,BA=5.60,STAT.D=14.0,ExtBa=14.53
27/09/2022,10:39:28,TEMP=30.6,BA=5.60,STAT.F,ExtBa=14.51
27/09/2022,10:54:26,TEMP=30.0,BA=5.56,STAT.D=14.0,ExtBa=14.51
27/09/2022,11:09:26,TEMP=30.9,BA=5.56,STAT.D=13.5,ExtBa=14.48
27/09/2022,11:24:26,TEMP=30.7,BA=5.56,STAT.D=14.0,ExtBa=14.45
27/09/2022,11:39:28,TEMP=30.9,BA=5.52,STAT.F,ExtBa=14.43
27/09/2022,11:54:26,TEMP=30.8,BA=5.44,STAT.D=13.5,ExtBa=13.85
27/09/2022,12:09:26,TEMP=30.9,BA=5.52,STAT.D=13.5,ExtBa=14.39
27/09/2022,12:24:26,TEMP=30.5,BA=5.52,STAT.D=14.0,ExtBa=14.36
27/09/2022,12:39:27,TEMP=29.9,BA=5.52,STAT.F,ExtBa=14.33
27/09/2022,12:54:25,TEMP=30.1,BA=5.44,STAT.D=13.5,ExtBa=13.52
27/09/2022,13:04:18,TEMP=30.0,BA=5.52,STAT.B=13.5,ExtBa=14.25
27/09/2022,13:20:12,TEMP=29.4,BA=5.44,STAT.A=14.0,ExtBa=14.06
27/09/2022,13:32:53,TEMP=28.7,BA=5.52,STAT.A=13.5,ExtBa=14.22
27/09/2022,13:43:16,TEMP=28.4,BA=5.52,STAT.A=13.5,ExtBa=14.18
27/09/2022,13:51:59,TEMP=28.0,BA=5.52,STAT.A=13.5,ExtBa=14.15
27/09/2022,13:59:23,TEMP=27.7,BA=5.52,STAT.C=13.5,ExtBa=14.09
27/09/2022,14:13:23,TEMP=27.9,BA=5.40,STAT.A=13.5,ExtBa=13.12
27/09/2022,14:15:19,TEMP=28.1,BA=5.40,STAT.A=13.5,ExtBa=13.15
27/09/2022,14:17:16,TEMP=28.0,BA=5.40,STAT.A=13.0,ExtBa=13.15
27/09/2022,14:20:38,TEMP=27.5,BA=5.52,STAT.A=13.5,ExtBa=13.21
27/09/2022,14:24:32,TEMP=27.2,BA=5.52,STAT.B=13.5,ExtBa=13.23
27/09/2022,14:34:08,TEMP=26.8,BA=5.40,STAT.A=13.5,ExtBa=13.06
27/09/2022,14:39:10,TEMP=26.4,BA=5.40,STAT.A=13.5,ExtBa=13.15
27/09/2022,14:44:25,TEMP=26.1,BA=5.40,STAT.A=13.5,ExtBa=13.14
27/09/2022,14:51:11,TEMP=25.7,BA=5.44,STAT.A=13.5,ExtBa=13.11
27/09/2022,14:53:09,TEMP=25.9,BA=5.44,STAT.A=13.5,ExtBa=13.02
27/09/2022,14:55:34,TEMP=25.8,BA=5.44,STAT.A=13.5,ExtBa=13.03